Time,TemperatureF,DewpointF,PressureIn,WindDirection,WindDirectionDegrees,WindSpeedMPH,WindSpeedGustMPH,Humidity,HourlyPrecipIn,Conditions,Clouds,dailyrainin,SolarRadiationWatts/m^2,SoftwareType,DateUTC
2013-10-02 00:05:00,57.0,35.0,-100.00,West,271,4.0,9.0,44,0.00,,,0.00,0.000000,,2013-10-02 04:05:00,
2013-10-02 00:12:00,56.0,35.0,-100.00,West,263,4.0,8.0,45,0.00,,,0.00,0.000000,,2013-10-02 04:12:00,
2013-10-02 00:44:00,56.0,35.0,-100.00,West,263,4.0,8.0,45,0.00,,,0.00,0.000000,,2013-10-02 04:44:00,
2013-10-02 00:54:00,56.0,35.0,-100.00,West,263,4.0,8.0,45,0.00,,,0.00,0.000000,,2013-10-02 04:54:00,
2013-10-02 01:04:00,56.0,35.0,-100.00,West,263,4.0,8.0,45,0.00,,,0.00,0.000000,,2013-10-02 05:04:00,
2013-10-02 01:12:00,52.0,34.0,-100.00,West,267,4.0,8.0,51,0.00,,,0.00,0.000000,,2013-10-02 05:12:00,
2013-10-02 01:43:00,52.0,34.0,-100.00,West,267,4.0,8.0,51,0.00,,,0.00,0.000000,,2013-10-02 05:43:00,
2013-10-02 01:53:00,52.0,34.0,-100.00,West,267,4.0,8.0,51,0.00,,,0.00,0.000000,,2013-10-02 05:53:00,
2013-10-02 02:03:00,52.0,34.0,-100.00,West,267,4.0,8.0,51,0.00,,,0.00,0.000000,,2013-10-02 06:03:00,
2013-10-02 02:12:00,54.0,34.0,-100.00,West,268,5.0,10.0,46,0.00,,,0.00,0.000000,,2013-10-02 06:12:00,
2013-10-02 02:42:00,54.0,34.0,-100.00,West,268,5.0,10.0,46,0.00,,,0.00,0.000000,,2013-10-02 06:42:00,
2013-10-02 02:52:00,54.0,34.0,-100.00,West,268,5.0,10.0,46,0.00,,,0.00,0.000000,,2013-10-02 06:52:00,
2013-10-02 03:02:00,54.0,34.0,-100.00,West,268,5.0,10.0,46,0.00,,,0.00,0.000000,,2013-10-02 07:02:00,
2013-10-02 03:42:00,51.0,34.0,-100.00,West,281,4.0,8.0,51,0.00,,,0.00,0.000000,,2013-10-02 07:42:00,
2013-10-02 03:52:00,51.0,34.0,-100.00,West,281,4.0,8.0,51,0.00,,,0.00,0.000000,,2013-10-02 07:52:00,
2013-10-02 04:03:00,51.0,34.0,-100.00,West,281,4.0,8.0,51,0.00,,,0.00,0.000000,,2013-10-02 08:03:00,
2013-10-02 04:11:00,51.0,34.0,-100.00,West,281,4.0,8.0,51,0.00,,,0.00,0.000000,,2013-10-02 08:11:00,
2013-10-02 04:42:00,53.0,34.0,-100.00,West,280,4.0,9.0,49,0.00,,,0.00,0.000000,,2013-10-02 08:42:00,
2013-10-02 04:52:00,53.0,34.0,-100.00,West,280,4.0,9.0,49,0.00,,,0.00,0.000000,,2013-10-02 08:52:00,
2013-10-02 05:02:00,53.0,34.0,-100.00,West,280,4.0,9.0,49,0.00,,,0.00,0.000000,,2013-10-02 09:02:00,
2013-10-02 05:11:00,53.0,34.0,-100.00,West,280,4.0,9.0,49,0.00,,,0.00,0.000000,,2013-10-02 09:11:00,
2013-10-02 05:12:00,49.0,35.0,-100.00,West,266,4.0,8.0,59,0.00,,,-99.99,0.000000,,2013-10-02 09:12:00,
2013-10-02 05:43:00,49.0,35.0,-100.00,West,266,4.0,8.0,59,0.00,,,-99.99,0.000000,,2013-10-02 09:43:00,
2013-10-02 05:54:00,49.0,35.0,-100.00,West,266,4.0,8.0,59,0.00,,,-99.99,0.000000,,2013-10-02 09:54:00,
2013-10-02 06:03:00,49.0,35.0,-100.00,West,266,4.0,8.0,59,0.00,,,-99.99,0.000000,,2013-10-02 10:03:00,
2013-10-02 06:12:00,47.0,35.0,-100.00,WSW,257,4.0,7.0,62,0.00,,,0.00,0.000000,,2013-10-02 10:12:00,
2013-10-02 06:42:00,47.0,35.0,-100.00,WSW,257,4.0,7.0,62,0.00,,,0.00,0.000000,,2013-10-02 10:42:00,
2013-10-02 06:53:00,47.0,35.0,-100.00,WSW,257,4.0,7.0,62,0.00,,,0.00,0.000000,,2013-10-02 10:53:00,
2013-10-02 07:03:00,47.0,35.0,-100.00,WSW,257,4.0,7.0,62,0.00,,,0.00,0.000000,,2013-10-02 11:03:00,
2013-10-02 07:12:00,47.0,35.0,-100.00,WSW,247,4.0,9.0,64,0.00,,,0.00,0.000000,,2013-10-02 11:12:00,
2013-10-02 07:43:00,47.0,35.0,-100.00,WSW,247,4.0,9.0,64,0.00,,,0.00,0.000000,,2013-10-02 11:43:00,
2013-10-02 07:52:00,47.0,35.0,-100.00,WSW,247,4.0,9.0,64,0.00,,,0.00,0.000000,,2013-10-02 11:52:00,
2013-10-02 08:02:00,47.0,35.0,-100.00,WSW,247,4.0,9.0,64,0.00,,,0.00,0.000000,,2013-10-02 12:02:00,
2013-10-02 08:42:00,45.0,35.0,-100.00,West,268,4.0,8.0,68,0.00,,,0.00,4.000000,,2013-10-02 12:42:00,
2013-10-02 08:52:00,45.0,35.0,-100.00,West,268,4.0,8.0,68,0.00,,,0.00,4.000000,,2013-10-02 12:52:00,
2013-10-02 09:02:00,45.0,35.0,-100.00,West,268,4.0,8.0,68,0.00,,,0.00,4.000000,,2013-10-02 13:02:00,
2013-10-02 09:11:00,45.0,35.0,-100.00,West,268,4.0,8.0,68,0.00,,,0.00,4.000000,,2013-10-02 13:11:00,
2013-10-02 09:42:00,50.0,38.0,-100.00,WSW,257,5.0,8.0,62,0.00,,,0.00,121.000000,,2013-10-02 13:42:00,
2013-10-02 09:52:00,50.0,38.0,-100.00,WSW,257,5.0,8.0,62,0.00,,,0.00,121.000000,,2013-10-02 13:52:00,
2013-10-02 10:02:00,50.0,38.0,-100.00,WSW,257,5.0,8.0,62,0.00,,,0.00,121.000000,,2013-10-02 14:02:00,
2013-10-02 10:11:00,50.0,38.0,-100.00,WSW,257,5.0,8.0,62,0.00,,,0.00,121.000000,,2013-10-02 14:11:00,
2013-10-02 10:42:00,56.0,38.0,-100.00,West,277,4.0,8.0,51,0.00,,,0.00,302.000000,,2013-10-02 14:42:00,
2013-10-02 10:52:00,56.0,38.0,-100.00,West,277,4.0,8.0,51,0.00,,,0.00,302.000000,,2013-10-02 14:52:00,
2013-10-02 11:01:00,56.0,38.0,-100.00,West,277,4.0,8.0,51,0.00,,,0.00,302.000000,,2013-10-02 15:01:00,
2013-10-02 11:11:00,56.0,38.0,-100.00,West,277,4.0,8.0,51,0.00,,,0.00,302.000000,,2013-10-02 15:11:00,
2013-10-02 11:12:00,62.0,41.0,-100.00,WSW,239,3.0,8.0,46,0.00,,,0.00,475.000000,,2013-10-02 15:12:00,
2013-10-02 11:43:00,62.0,41.0,-100.00,WSW,239,3.0,8.0,46,0.00,,,0.00,475.000000,,2013-10-02 15:43:00,
2013-10-02 11:54:00,62.0,41.0,-100.00,WSW,239,3.0,8.0,46,0.00,,,0.00,475.000000,,2013-10-02 15:54:00,
2013-10-02 12:03:00,62.0,41.0,-100.00,WSW,239,3.0,8.0,46,0.00,,,0.00,475.000000,,2013-10-02 16:03:00,
2013-10-02 12:12:00,67.0,38.0,-100.00,WNW,282,4.0,8.0,35,0.00,,,0.00,604.000000,,2013-10-02 16:12:00,
2013-10-02 12:43:00,67.0,38.0,-100.00,WNW,282,4.0,8.0,35,0.00,,,0.00,604.000000,,2013-10-02 16:43:00,
2013-10-02 12:52:00,67.0,38.0,-100.00,WNW,282,4.0,8.0,35,0.00,,,0.00,604.000000,,2013-10-02 16:52:00,
2013-10-02 13:02:00,67.0,38.0,-100.00,WNW,282,4.0,8.0,35,0.00,,,0.00,604.000000,,2013-10-02 17:02:00,
2013-10-02 13:12:00,68.0,33.0,-100.00,West,272,9.0,16.0,27,0.00,,,0.00,686.000000,,2013-10-02 17:12:00,
2013-10-02 13:42:00,68.0,33.0,-100.00,West,272,9.0,16.0,27,0.00,,,0.00,686.000000,,2013-10-02 17:42:00,
2013-10-02 13:52:00,68.0,33.0,-100.00,West,272,9.0,16.0,27,0.00,,,0.00,686.000000,,2013-10-02 17:52:00,
2013-10-02 14:02:00,68.0,33.0,-100.00,West,272,9.0,16.0,27,0.00,,,0.00,686.000000,,2013-10-02 18:02:00,
2013-10-02 14:42:00,71.0,33.0,-100.00,West,277,6.0,14.0,25,0.00,,,0.00,714.000000,,2013-10-02 18:42:00,
2013-10-02 14:52:00,71.0,33.0,-100.00,West,277,6.0,14.0,25,0.00,,,0.00,714.000000,,2013-10-02 18:52:00,
2013-10-02 15:02:00,71.0,33.0,-100.00,West,277,6.0,14.0,25,0.00,,,0.00,714.000000,,2013-10-02 19:02:00,
2013-10-02 15:11:00,71.0,33.0,-100.00,West,277,6.0,14.0,25,0.00,,,0.00,714.000000,,2013-10-02 19:11:00,
2013-10-02 15:42:00,72.0,31.0,-100.00,WNW,297,5.0,12.0,22,0.00,,,0.00,679.000000,,2013-10-02 19:42:00,
2013-10-02 15:52:00,72.0,31.0,-100.00,WNW,297,5.0,12.0,22,0.00,,,0.00,679.000000,,2013-10-02 19:52:00,
2013-10-02 16:02:00,72.0,31.0,-100.00,WNW,297,5.0,12.0,22,0.00,,,0.00,679.000000,,2013-10-02 20:02:00,
2013-10-02 16:11:00,72.0,31.0,-100.00,WNW,297,5.0,12.0,22,0.00,,,0.00,679.000000,,2013-10-02 20:11:00,
2013-10-02 16:42:00,73.0,31.0,-100.00,WNW,296,3.0,11.0,21,0.00,,,-99.99,578.000000,,2013-10-02 20:42:00,
2013-10-02 16:52:00,73.0,31.0,-100.00,WNW,296,3.0,11.0,21,0.00,,,-99.99,578.000000,,2013-10-02 20:52:00,
2013-10-02 17:02:00,73.0,31.0,-100.00,WNW,296,3.0,11.0,21,0.00,,,-99.99,578.000000,,2013-10-02 21:02:00,
2013-10-02 17:11:00,73.0,31.0,-100.00,WNW,296,3.0,11.0,21,0.00,,,-99.99,578.000000,,2013-10-02 21:11:00,
2013-10-02 17:12:00,74.0,32.0,-100.00,West,275,3.0,8.0,21,0.00,,,0.00,458.000000,,2013-10-02 21:12:00,
2013-10-02 17:44:00,74.0,32.0,-100.00,West,275,3.0,8.0,21,0.00,,,0.00,458.000000,,2013-10-02 21:44:00,
2013-10-02 17:55:00,74.0,32.0,-100.00,West,275,3.0,8.0,21,0.00,,,0.00,458.000000,,2013-10-02 21:55:00,
2013-10-02 18:04:00,74.0,32.0,-100.00,West,275,3.0,8.0,21,0.00,,,0.00,458.000000,,2013-10-02 22:04:00,
2013-10-02 18:12:00,72.0,33.0,-100.00,SE,146,2.0,7.0,24,0.00,,,0.00,290.000000,,2013-10-02 22:12:00,
2013-10-02 18:44:00,72.0,33.0,-100.00,SE,146,2.0,7.0,24,0.00,,,0.00,290.000000,,2013-10-02 22:44:00,
2013-10-02 18:54:00,72.0,33.0,-100.00,SE,146,2.0,7.0,24,0.00,,,0.00,290.000000,,2013-10-02 22:54:00,
2013-10-02 19:04:00,72.0,33.0,-100.00,SE,146,2.0,7.0,24,0.00,,,0.00,290.000000,,2013-10-02 23:04:00,
2013-10-02 19:12:00,62.0,40.0,-100.00,ESE,116,2.0,6.0,44,0.00,,,0.00,101.000000,,2013-10-02 23:12:00,
2013-10-02 19:42:00,62.0,40.0,-100.00,ESE,116,2.0,6.0,44,0.00,,,0.00,101.000000,,2013-10-02 23:42:00,
2013-10-02 19:52:00,62.0,40.0,-100.00,ESE,116,2.0,6.0,44,0.00,,,0.00,101.000000,,2013-10-02 23:52:00,
2013-10-02 20:02:00,62.0,40.0,-100.00,ESE,116,2.0,6.0,44,0.00,,,0.00,101.000000,,2013-10-03 00:02:00,
2013-10-02 20:42:00,58.0,39.0,-100.00,SE,143,3.0,6.0,49,0.00,,,0.00,3.000000,,2013-10-03 00:42:00,
2013-10-02 20:52:00,58.0,39.0,-100.00,SE,143,3.0,6.0,49,0.00,,,0.00,3.000000,,2013-10-03 00:52:00,
2013-10-02 21:02:00,58.0,39.0,-100.00,SE,143,3.0,6.0,49,0.00,,,0.00,3.000000,,2013-10-03 01:02:00,
2013-10-02 21:11:00,58.0,39.0,-100.00,SE,143,3.0,6.0,49,0.00,,,0.00,3.000000,,2013-10-03 01:11:00,
2013-10-02 21:42:00,52.0,42.0,-100.00,South,171,2.0,5.0,69,0.00,,,0.00,0.000000,,2013-10-03 01:42:00,
2013-10-02 21:52:00,52.0,42.0,-100.00,South,171,2.0,5.0,69,0.00,,,0.00,0.000000,,2013-10-03 01:52:00,
2013-10-02 22:02:00,52.0,42.0,-100.00,South,171,2.0,5.0,69,0.00,,,0.00,0.000000,,2013-10-03 02:02:00,
2013-10-02 22:11:00,52.0,42.0,-100.00,South,171,2.0,5.0,69,0.00,,,0.00,0.000000,,2013-10-03 02:11:00,
2013-10-02 22:52:00,49.0,41.0,-100.00,SSE,157,0.0,4.0,73,0.00,,,0.00,0.000000,,2013-10-03 02:52:00,
2013-10-02 23:03:00,49.0,41.0,-100.00,SSE,157,0.0,4.0,73,0.00,,,0.00,0.000000,,2013-10-03 03:03:00,
2013-10-02 23:11:00,49.0,41.0,-100.00,SSE,157,0.0,4.0,73,0.00,,,0.00,0.000000,,2013-10-03 03:11:00,
2013-10-02 23:12:00,47.0,42.0,-100.00,SSW,201,0.0,2.0,83,0.00,,,0.00,0.000000,,2013-10-03 03:12:00,
2013-10-02 23:44:00,47.0,42.0,-100.00,SSW,201,0.0,2.0,83,0.00,,,0.00,0.000000,,2013-10-03 03:44:00,
2013-10-02 23:54:00,47.0,42.0,-100.00,SSW,201,0.0,2.0,83,0.00,,,0.00,0.000000,,2013-10-03 03:54:00,